sensor_id;sensor_type;location;lat;lon;timestamp;pressure;altitude;pressure_sealevel;temperature
68745;BMP180;73143;45.456;11.064;2023-12-04T00:01:07;101431.40;;;5.10
68745;BMP180;73143;45.456;11.064;2023-12-04T00:03:44;101432.60;;;5.10
68745;BMP180;73143;45.456;11.064;2023-12-04T00:06:23;101429.60;;;5.10
68745;BMP180;73143;45.456;11.064;2023-12-04T00:08:59;101435.40;;;5.10
68745;BMP180;73143;45.456;11.064;2023-12-04T00:11:37;101432.80;;;5.10
68745;BMP180;73143;45.456;11.064;2023-12-04T00:14:15;101427.60;;;5.10
68745;BMP180;73143;45.456;11.064;2023-12-04T00:16:52;101426.00;;;5.10
68745;BMP180;73143;45.456;11.064;2023-12-04T00:19:29;101426.20;;;5.10
68745;BMP180;73143;45.456;11.064;2023-12-04T00:22:08;101424.60;;;5.12
68745;BMP180;73143;45.456;11.064;2023-12-04T00:24:45;101422.60;;;5.18
68745;BMP180;73143;45.456;11.064;2023-12-04T00:27:22;101429.00;;;5.20
68745;BMP180;73143;45.456;11.064;2023-12-04T00:30:02;101425.20;;;5.20
68745;BMP180;73143;45.456;11.064;2023-12-04T00:32:40;101423.60;;;5.18
68745;BMP180;73143;45.456;11.064;2023-12-04T00:35:18;101423.00;;;5.16
68745;BMP180;73143;45.456;11.064;2023-12-04T00:37:55;101422.20;;;5.20
68745;BMP180;73143;45.456;11.064;2023-12-04T00:40:33;101424.60;;;5.20
68745;BMP180;73143;45.456;11.064;2023-12-04T00:43:10;101424.40;;;5.14
68745;BMP180;73143;45.456;11.064;2023-12-04T00:45:47;101415.40;;;5.16
68745;BMP180;73143;45.456;11.064;2023-12-04T00:48:24;101406.80;;;5.10
68745;BMP180;73143;45.456;11.064;2023-12-04T00:51:02;101405.20;;;5.10
68745;BMP180;73143;45.456;11.064;2023-12-04T00:53:39;101401.20;;;5.10
68745;BMP180;73143;45.456;11.064;2023-12-04T00:56:18;101399.20;;;5.06
68745;BMP180;73143;45.456;11.064;2023-12-04T00:58:56;101397.20;;;5.00
68745;BMP180;73143;45.456;11.064;2023-12-04T01:01:34;101396.40;;;5.00
68745;BMP180;73143;45.456;11.064;2023-12-04T01:04:11;101392.00;;;4.96
68745;BMP180;73143;45.456;11.064;2023-12-04T01:06:48;101388.20;;;4.90
68745;BMP180;73143;45.456;11.064;2023-12-04T01:09:25;101391.40;;;4.80
68745;BMP180;73143;45.456;11.064;2023-12-04T01:12:03;101392.60;;;4.80
68745;BMP180;73143;45.456;11.064;2023-12-04T01:14:40;101386.40;;;4.80
68745;BMP180;73143;45.456;11.064;2023-12-04T01:17:18;101385.80;;;4.78
68745;BMP180;73143;45.456;11.064;2023-12-04T01:19:55;101393.00;;;4.70
68745;BMP180;73143;45.456;11.064;2023-12-04T01:22:32;101383.60;;;4.62
68745;BMP180;73143;45.456;11.064;2023-12-04T01:25:13;101388.80;;;4.60
68745;BMP180;73143;45.456;11.064;2023-12-04T01:27:53;101389.80;;;4.60
68745;BMP180;73143;45.456;11.064;2023-12-04T01:30:30;101394.00;;;4.60
68745;BMP180;73143;45.456;11.064;2023-12-04T01:33:07;101393.20;;;4.60
68745;BMP180;73143;45.456;11.064;2023-12-04T01:35:45;101397.60;;;4.60
68745;BMP180;73143;45.456;11.064;2023-12-04T01:38:21;101396.80;;;4.58
68745;BMP180;73143;45.456;11.064;2023-12-04T01:41:01;101393.60;;;4.50
68745;BMP180;73143;45.456;11.064;2023-12-04T01:43:38;101393.80;;;4.50
68745;BMP180;73143;45.456;11.064;2023-12-04T01:46:18;101394.60;;;4.50
68745;BMP180;73143;45.456;11.064;2023-12-04T01:48:56;101392.20;;;4.50
68745;BMP180;73143;45.456;11.064;2023-12-04T01:51:34;101388.00;;;4.50
68745;BMP180;73143;45.456;11.064;2023-12-04T01:54:12;101390.60;;;4.46
68745;BMP180;73143;45.456;11.064;2023-12-04T01:56:49;101384.40;;;4.40
68745;BMP180;73143;45.456;11.064;2023-12-04T01:59:30;101386.20;;;4.40
68745;BMP180;73143;45.456;11.064;2023-12-04T02:02:08;101388.40;;;4.42
68745;BMP180;73143;45.456;11.064;2023-12-04T02:04:46;101386.80;;;4.40
68745;BMP180;73143;45.456;11.064;2023-12-04T02:07:24;101380.80;;;4.40
68745;BMP180;73143;45.456;11.064;2023-12-04T02:10:02;101373.20;;;4.40
68745;BMP180;73143;45.456;11.064;2023-12-04T02:12:40;101371.20;;;4.36
68745;BMP180;73143;45.456;11.064;2023-12-04T02:15:18;101369.60;;;4.28
68745;BMP180;73143;45.456;11.064;2023-12-04T02:17:56;101368.20;;;4.20
68745;BMP180;73143;45.456;11.064;2023-12-04T02:20:37;101365.00;;;4.10
68745;BMP180;73143;45.456;11.064;2023-12-04T02:23:13;101366.00;;;4.00
68745;BMP180;73143;45.456;11.064;2023-12-04T02:25:51;101363.80;;;4.00
68745;BMP180;73143;45.456;11.064;2023-12-04T02:28:33;101362.40;;;4.00
68745;BMP180;73143;45.456;11.064;2023-12-04T02:31:14;101366.40;;;4.00
68745;BMP180;73143;45.456;11.064;2023-12-04T02:33:55;101365.80;;;4.00
68745;BMP180;73143;45.456;11.064;2023-12-04T02:36:33;101376.00;;;4.08
68745;BMP180;73143;45.456;11.064;2023-12-04T02:39:11;101374.40;;;4.10
68745;BMP180;73143;45.456;11.064;2023-12-04T02:41:52;101382.00;;;4.10
68745;BMP180;73143;45.456;11.064;2023-12-04T02:44:29;101378.60;;;4.10
68745;BMP180;73143;45.456;11.064;2023-12-04T02:47:07;101370.80;;;4.10
68745;BMP180;73143;45.456;11.064;2023-12-04T02:49:45;101375.00;;;4.10
68745;BMP180;73143;45.456;11.064;2023-12-04T02:52:22;101375.20;;;4.10
68745;BMP180;73143;45.456;11.064;2023-12-04T02:55:01;101377.60;;;4.10
68745;BMP180;73143;45.456;11.064;2023-12-04T02:57:38;101380.80;;;4.10
68745;BMP180;73143;45.456;11.064;2023-12-04T03:00:22;101386.00;;;4.00
68745;BMP180;73143;45.456;11.064;2023-12-04T03:02:59;101387.80;;;4.06
68745;BMP180;73143;45.456;11.064;2023-12-04T03:05:36;101388.60;;;4.04
68745;BMP180;73143;45.456;11.064;2023-12-04T03:08:12;101391.60;;;4.02
68745;BMP180;73143;45.456;11.064;2023-12-04T03:10:49;101392.00;;;4.00
68745;BMP180;73143;45.456;11.064;2023-12-04T03:13:27;101390.20;;;4.00
68745;BMP180;73143;45.456;11.064;2023-12-04T03:16:06;101384.40;;;3.96
68745;BMP180;73143;45.456;11.064;2023-12-04T03:18:52;101382.60;;;3.90
68745;BMP180;73143;45.456;11.064;2023-12-04T03:21:29;101378.20;;;3.90
68745;BMP180;73143;45.456;11.064;2023-12-04T03:24:09;101374.00;;;3.90
68745;BMP180;73143;45.456;11.064;2023-12-04T03:26:47;101371.40;;;3.90
68745;BMP180;73143;45.456;11.064;2023-12-04T03:29:24;101373.80;;;3.92
68745;BMP180;73143;45.456;11.064;2023-12-04T03:32:01;101365.40;;;3.90
68745;BMP180;73143;45.456;11.064;2023-12-04T03:34:39;101353.80;;;3.90
68745;BMP180;73143;45.456;11.064;2023-12-04T03:37:18;101359.60;;;3.90
68745;BMP180;73143;45.456;11.064;2023-12-04T03:39:55;101357.40;;;3.90
68745;BMP180;73143;45.456;11.064;2023-12-04T03:42:32;101350.80;;;3.90
68745;BMP180;73143;45.456;11.064;2023-12-04T03:45:14;101351.80;;;3.90
68745;BMP180;73143;45.456;11.064;2023-12-04T03:47:52;101349.20;;;3.90
68745;BMP180;73143;45.456;11.064;2023-12-04T03:50:29;101341.60;;;3.80
68745;BMP180;73143;45.456;11.064;2023-12-04T03:53:06;101335.20;;;3.80
68745;BMP180;73143;45.456;11.064;2023-12-04T03:55:43;101338.40;;;3.80
68745;BMP180;73143;45.456;11.064;2023-12-04T03:58:21;101338.60;;;3.80
68745;BMP180;73143;45.456;11.064;2023-12-04T04:00:58;101337.20;;;3.80
68745;BMP180;73143;45.456;11.064;2023-12-04T04:03:36;101336.40;;;3.80
68745;BMP180;73143;45.456;11.064;2023-12-04T04:06:17;101333.20;;;3.80
68745;BMP180;73143;45.456;11.064;2023-12-04T04:08:54;101330.60;;;3.80
68745;BMP180;73143;45.456;11.064;2023-12-04T04:11:31;101333.40;;;3.80
68745;BMP180;73143;45.456;11.064;2023-12-04T04:14:08;101330.80;;;3.70
68745;BMP180;73143;45.456;11.064;2023-12-04T04:16:46;101334.20;;;3.70
68745;BMP180;73143;45.456;11.064;2023-12-04T04:19:22;101332.20;;;3.70
68745;BMP180;73143;45.456;11.064;2023-12-04T04:22:01;101332.40;;;3.70
68745;BMP180;73143;45.456;11.064;2023-12-04T04:24:39;101330.80;;;3.70
68745;BMP180;73143;45.456;11.064;2023-12-04T04:27:16;101329.60;;;3.70
68745;BMP180;73143;45.456;11.064;2023-12-04T04:29:54;101334.40;;;3.60
68745;BMP180;73143;45.456;11.064;2023-12-04T04:32:31;101337.40;;;3.60
68745;BMP180;73143;45.456;11.064;2023-12-04T04:35:10;101338.20;;;3.60
68745;BMP180;73143;45.456;11.064;2023-12-04T04:37:48;101333.80;;;3.68
68745;BMP180;73143;45.456;11.064;2023-12-04T04:40:26;101332.40;;;3.66
68745;BMP180;73143;45.456;11.064;2023-12-04T04:43:03;101335.80;;;3.62
68745;BMP180;73143;45.456;11.064;2023-12-04T04:45:40;101335.20;;;3.60
68745;BMP180;73143;45.456;11.064;2023-12-04T04:48:17;101333.40;;;3.62
68745;BMP180;73143;45.456;11.064;2023-12-04T04:50:55;101331.00;;;3.60
68745;BMP180;73143;45.456;11.064;2023-12-04T04:53:33;101324.80;;;3.70
68745;BMP180;73143;45.456;11.064;2023-12-04T04:56:14;101327.00;;;3.70
68745;BMP180;73143;45.456;11.064;2023-12-04T04:58:50;101319.00;;;3.70
68745;BMP180;73143;45.456;11.064;2023-12-04T05:01:28;101323.40;;;3.70
68745;BMP180;73143;45.456;11.064;2023-12-04T05:04:05;101319.40;;;3.70
68745;BMP180;73143;45.456;11.064;2023-12-04T05:06:43;101313.80;;;3.70
68745;BMP180;73143;45.456;11.064;2023-12-04T05:09:20;101312.60;;;3.70
68745;BMP180;73143;45.456;11.064;2023-12-04T05:11:57;101303.40;;;3.70
68745;BMP180;73143;45.456;11.064;2023-12-04T05:14:35;101306.80;;;3.70
68745;BMP180;73143;45.456;11.064;2023-12-04T05:17:11;101300.80;;;3.70
68745;BMP180;73143;45.456;11.064;2023-12-04T05:19:49;101298.40;;;3.70
68745;BMP180;73143;45.456;11.064;2023-12-04T05:22:25;101297.60;;;3.70
68745;BMP180;73143;45.456;11.064;2023-12-04T05:25:04;101297.00;;;3.68
68745;BMP180;73143;45.456;11.064;2023-12-04T05:27:43;101297.00;;;3.60
68745;BMP180;73143;45.456;11.064;2023-12-04T05:30:23;101291.60;;;3.60
68745;BMP180;73143;45.456;11.064;2023-12-04T05:33:02;101287.40;;;3.60
68745;BMP180;73143;45.456;11.064;2023-12-04T05:35:39;101292.00;;;3.60
68745;BMP180;73143;45.456;11.064;2023-12-04T05:38:17;101284.60;;;3.60
68745;BMP180;73143;45.456;11.064;2023-12-04T05:40:54;101282.00;;;3.60
68745;BMP180;73143;45.456;11.064;2023-12-04T05:43:31;101282.60;;;3.60
68745;BMP180;73143;45.456;11.064;2023-12-04T05:46:09;101289.80;;;3.60
68745;BMP180;73143;45.456;11.064;2023-12-04T05:48:47;101287.00;;;3.60
68745;BMP180;73143;45.456;11.064;2023-12-04T05:51:24;101291.40;;;3.60
68745;BMP180;73143;45.456;11.064;2023-12-04T05:54:00;101294.00;;;3.60
68745;BMP180;73143;45.456;11.064;2023-12-04T05:56:38;101294.60;;;3.60
68745;BMP180;73143;45.456;11.064;2023-12-04T05:59:15;101304.40;;;3.60
68745;BMP180;73143;45.456;11.064;2023-12-04T06:01:52;101308.20;;;3.60
68745;BMP180;73143;45.456;11.064;2023-12-04T06:04:30;101315.00;;;3.60
68745;BMP180;73143;45.456;11.064;2023-12-04T06:07:07;101311.60;;;3.50
68745;BMP180;73143;45.456;11.064;2023-12-04T06:09:44;101313.20;;;3.50
68745;BMP180;73143;45.456;11.064;2023-12-04T06:12:21;101318.40;;;3.50
68745;BMP180;73143;45.456;11.064;2023-12-04T06:14:59;101319.80;;;3.50
68745;BMP180;73143;45.456;11.064;2023-12-04T06:17:38;101324.80;;;3.50
68745;BMP180;73143;45.456;11.064;2023-12-04T06:20:18;101321.40;;;3.52
68745;BMP180;73143;45.456;11.064;2023-12-04T06:22:58;101318.80;;;3.60
68745;BMP180;73143;45.456;11.064;2023-12-04T06:25:40;101318.00;;;3.60
68745;BMP180;73143;45.456;11.064;2023-12-04T06:28:23;101322.20;;;3.60
68745;BMP180;73143;45.456;11.064;2023-12-04T06:31:09;101329.60;;;3.60
68745;BMP180;73143;45.456;11.064;2023-12-04T06:33:51;101323.00;;;3.60
68745;BMP180;73143;45.456;11.064;2023-12-04T06:36:34;101324.00;;;3.60
68745;BMP180;73143;45.456;11.064;2023-12-04T06:39:15;101322.80;;;3.70
68745;BMP180;73143;45.456;11.064;2023-12-04T06:41:57;101324.60;;;3.70
68745;BMP180;73143;45.456;11.064;2023-12-04T06:44:39;101328.40;;;3.70
68745;BMP180;73143;45.456;11.064;2023-12-04T06:47:21;101332.80;;;3.64
68745;BMP180;73143;45.456;11.064;2023-12-04T06:49:59;101335.20;;;3.60
68745;BMP180;73143;45.456;11.064;2023-12-04T06:52:36;101336.20;;;3.60
68745;BMP180;73143;45.456;11.064;2023-12-04T06:55:16;101342.20;;;3.50
68745;BMP180;73143;45.456;11.064;2023-12-04T06:57:54;101340.60;;;3.50
68745;BMP180;73143;45.456;11.064;2023-12-04T07:00:31;101341.60;;;3.40
68745;BMP180;73143;45.456;11.064;2023-12-04T07:03:09;101345.60;;;3.30
68745;BMP180;73143;45.456;11.064;2023-12-04T07:05:46;101339.80;;;3.30
68745;BMP180;73143;45.456;11.064;2023-12-04T07:08:26;101337.40;;;3.20
68745;BMP180;73143;45.456;11.064;2023-12-04T07:11:04;101332.60;;;3.10
68745;BMP180;73143;45.456;11.064;2023-12-04T07:13:42;101324.60;;;3.00
68745;BMP180;73143;45.456;11.064;2023-12-04T07:16:20;101323.40;;;3.00
68745;BMP180;73143;45.456;11.064;2023-12-04T07:18:57;101324.40;;;2.90
68745;BMP180;73143;45.456;11.064;2023-12-04T07:21:35;101320.40;;;2.90
68745;BMP180;73143;45.456;11.064;2023-12-04T07:24:14;101326.60;;;2.92
68745;BMP180;73143;45.456;11.064;2023-12-04T07:26:50;101329.60;;;3.00
68745;BMP180;73143;45.456;11.064;2023-12-04T07:29:28;101330.00;;;3.10
68745;BMP180;73143;45.456;11.064;2023-12-04T07:32:07;101326.20;;;3.20
68745;BMP180;73143;45.456;11.064;2023-12-04T07:34:45;101332.80;;;3.20
68745;BMP180;73143;45.456;11.064;2023-12-04T07:37:23;101334.60;;;3.30
68745;BMP180;73143;45.456;11.064;2023-12-04T07:40:01;101342.20;;;3.40
68745;BMP180;73143;45.456;11.064;2023-12-04T07:42:38;101344.60;;;3.42
68745;BMP180;73143;45.456;11.064;2023-12-04T07:45:17;101346.20;;;3.50
68745;BMP180;73143;45.456;11.064;2023-12-04T07:47:55;101352.20;;;3.50
68745;BMP180;73143;45.456;11.064;2023-12-04T07:50:32;101344.60;;;3.60
68745;BMP180;73143;45.456;11.064;2023-12-04T07:53:09;101342.80;;;3.60
68745;BMP180;73143;45.456;11.064;2023-12-04T07:55:48;101333.60;;;3.60
68745;BMP180;73143;45.456;11.064;2023-12-04T07:58:25;101331.00;;;3.60
68745;BMP180;73143;45.456;11.064;2023-12-04T08:01:01;101333.40;;;3.66
68745;BMP180;73143;45.456;11.064;2023-12-04T08:03:40;101326.60;;;3.70
68745;BMP180;73143;45.456;11.064;2023-12-04T08:06:18;101324.40;;;3.70
68745;BMP180;73143;45.456;11.064;2023-12-04T08:08:56;101329.20;;;3.70
68745;BMP180;73143;45.456;11.064;2023-12-04T08:11:36;101332.00;;;3.70
68745;BMP180;73143;45.456;11.064;2023-12-04T08:14:13;101335.20;;;3.70
68745;BMP180;73143;45.456;11.064;2023-12-04T08:16:52;101338.60;;;3.70
68745;BMP180;73143;45.456;11.064;2023-12-04T08:19:30;101334.60;;;3.70
68745;BMP180;73143;45.456;11.064;2023-12-04T08:22:08;101335.80;;;3.78
68745;BMP180;73143;45.456;11.064;2023-12-04T08:24:45;101336.20;;;3.80
68745;BMP180;73143;45.456;11.064;2023-12-04T08:27:22;101337.00;;;3.84
68745;BMP180;73143;45.456;11.064;2023-12-04T08:30:00;101335.80;;;3.90
68745;BMP180;73143;45.456;11.064;2023-12-04T08:32:37;101332.80;;;3.90
68745;BMP180;73143;45.456;11.064;2023-12-04T08:35:15;101336.40;;;4.00
68745;BMP180;73143;45.456;11.064;2023-12-04T08:37:52;101336.00;;;4.00
68745;BMP180;73143;45.456;11.064;2023-12-04T08:40:30;101332.60;;;4.10
68745;BMP180;73143;45.456;11.064;2023-12-04T08:43:07;101331.60;;;4.10
68745;BMP180;73143;45.456;11.064;2023-12-04T08:45:45;101319.20;;;4.20
68745;BMP180;73143;45.456;11.064;2023-12-04T08:48:22;101322.80;;;4.22
68745;BMP180;73143;45.456;11.064;2023-12-04T08:50:59;101331.80;;;4.30
68745;BMP180;73143;45.456;11.064;2023-12-04T08:53:36;101326.20;;;4.30
68745;BMP180;73143;45.456;11.064;2023-12-04T08:56:17;101317.60;;;4.40
68745;BMP180;73143;45.456;11.064;2023-12-04T08:59:04;101306.40;;;4.40
68745;BMP180;73143;45.456;11.064;2023-12-04T09:01:41;101291.40;;;4.40
68745;BMP180;73143;45.456;11.064;2023-12-04T09:04:17;101290.80;;;4.40
68745;BMP180;73143;45.456;11.064;2023-12-04T09:06:54;101291.20;;;4.40
68745;BMP180;73143;45.456;11.064;2023-12-04T09:09:56;101287.20;;;4.50
68745;BMP180;73143;45.456;11.064;2023-12-04T09:12:42;101281.80;;;4.50
68745;BMP180;73143;45.456;11.064;2023-12-04T09:15:20;101292.00;;;4.50
68745;BMP180;73143;45.456;11.064;2023-12-04T09:17:57;101295.40;;;4.60
68745;BMP180;73143;45.456;11.064;2023-12-04T09:20:34;101292.00;;;4.60
68745;BMP180;73143;45.456;11.064;2023-12-04T09:23:13;101291.20;;;4.70
68745;BMP180;73143;45.456;11.064;2023-12-04T09:25:51;101293.40;;;4.70
68745;BMP180;73143;45.456;11.064;2023-12-04T09:28:28;101292.40;;;4.80
68745;BMP180;73143;45.456;11.064;2023-12-04T09:31:06;101286.40;;;4.80
68745;BMP180;73143;45.456;11.064;2023-12-04T09:33:44;101281.60;;;4.82
68745;BMP180;73143;45.456;11.064;2023-12-04T09:36:21;101273.20;;;4.90
68745;BMP180;73143;45.456;11.064;2023-12-04T09:38:58;101271.00;;;4.90
68745;BMP180;73143;45.456;11.064;2023-12-04T09:41:36;101263.20;;;4.96
68745;BMP180;73143;45.456;11.064;2023-12-04T09:44:13;101271.80;;;5.00
68745;BMP180;73143;45.456;11.064;2023-12-04T09:46:52;101271.20;;;5.00
68745;BMP180;73143;45.456;11.064;2023-12-04T09:49:31;101270.60;;;5.00
68745;BMP180;73143;45.456;11.064;2023-12-04T09:52:10;101268.40;;;5.00
68745;BMP180;73143;45.456;11.064;2023-12-04T09:54:50;101267.20;;;5.00
68745;BMP180;73143;45.456;11.064;2023-12-04T09:57:28;101262.80;;;5.00
68745;BMP180;73143;45.456;11.064;2023-12-04T10:00:11;101252.80;;;5.00
68745;BMP180;73143;45.456;11.064;2023-12-04T10:02:49;101250.60;;;5.10
68745;BMP180;73143;45.456;11.064;2023-12-04T10:05:26;101259.20;;;5.10
68745;BMP180;73143;45.456;11.064;2023-12-04T10:08:03;101260.00;;;5.10
68745;BMP180;73143;45.456;11.064;2023-12-04T10:10:41;101254.60;;;5.12
68745;BMP180;73143;45.456;11.064;2023-12-04T10:13:19;101244.20;;;5.12
68745;BMP180;73143;45.456;11.064;2023-12-04T10:16:16;101234.00;;;5.10
68745;BMP180;73143;45.456;11.064;2023-12-04T10:19:25;101222.60;;;5.10
68745;BMP180;73143;45.456;11.064;2023-12-04T10:22:02;101199.80;;;5.10
68745;BMP180;73143;45.456;11.064;2023-12-04T10:24:43;101177.20;;;5.10
68745;BMP180;73143;45.456;11.064;2023-12-04T10:27:20;101157.40;;;5.02
68745;BMP180;73143;45.456;11.064;2023-12-04T10:30:03;101148.00;;;5.00
68745;BMP180;73143;45.456;11.064;2023-12-04T10:32:43;101139.40;;;4.90
68745;BMP180;73143;45.456;11.064;2023-12-04T10:35:21;101136.20;;;4.90
68745;BMP180;73143;45.456;11.064;2023-12-04T10:38:00;101139.00;;;4.92
68745;BMP180;73143;45.456;11.064;2023-12-04T10:40:39;101150.40;;;5.00
68745;BMP180;73143;45.456;11.064;2023-12-04T10:43:21;101152.20;;;5.00
68745;BMP180;73143;45.456;11.064;2023-12-04T10:45:59;101149.40;;;5.10
68745;BMP180;73143;45.456;11.064;2023-12-04T10:48:37;101146.40;;;5.10
68745;BMP180;73143;45.456;11.064;2023-12-04T10:51:15;101146.80;;;5.20
68745;BMP180;73143;45.456;11.064;2023-12-04T10:53:51;101149.40;;;5.20
68745;BMP180;73143;45.456;11.064;2023-12-04T10:56:36;101154.80;;;5.26
68745;BMP180;73143;45.456;11.064;2023-12-04T10:59:21;101153.20;;;5.30
68745;BMP180;73143;45.456;11.064;2023-12-04T11:02:04;101153.60;;;5.40
68745;BMP180;73143;45.456;11.064;2023-12-04T11:04:44;101146.40;;;5.40
68745;BMP180;73143;45.456;11.064;2023-12-04T11:07:23;101146.20;;;5.40
68745;BMP180;73143;45.456;11.064;2023-12-04T11:10:05;101142.60;;;5.50
68745;BMP180;73143;45.456;11.064;2023-12-04T11:12:49;101134.20;;;5.50
68745;BMP180;73143;45.456;11.064;2023-12-04T11:15:29;101134.60;;;5.58
68745;BMP180;73143;45.456;11.064;2023-12-04T11:18:09;101124.00;;;5.60
68745;BMP180;73143;45.456;11.064;2023-12-04T11:20:55;101113.80;;;5.64
68745;BMP180;73143;45.456;11.064;2023-12-04T11:23:35;101109.20;;;5.70
68745;BMP180;73143;45.456;11.064;2023-12-04T11:26:14;101104.60;;;5.72
68745;BMP180;73143;45.456;11.064;2023-12-04T11:28:53;101106.40;;;5.80
68745;BMP180;73143;45.456;11.064;2023-12-04T11:31:31;101097.20;;;5.80
68745;BMP180;73143;45.456;11.064;2023-12-04T11:34:11;101094.20;;;5.80
68745;BMP180;73143;45.456;11.064;2023-12-04T11:36:49;101093.80;;;5.80
68745;BMP180;73143;45.456;11.064;2023-12-04T11:39:28;101091.60;;;5.82
68745;BMP180;73143;45.456;11.064;2023-12-04T11:42:08;101082.20;;;5.90
68745;BMP180;73143;45.456;11.064;2023-12-04T11:44:50;101079.00;;;5.90
68745;BMP180;73143;45.456;11.064;2023-12-04T11:47:33;101078.80;;;5.90
68745;BMP180;73143;45.456;11.064;2023-12-04T11:50:26;101078.20;;;5.94
68745;BMP180;73143;45.456;11.064;2023-12-04T11:53:04;101072.80;;;6.00
68745;BMP180;73143;45.456;11.064;2023-12-04T11:55:43;101079.00;;;6.00
68745;BMP180;73143;45.456;11.064;2023-12-04T11:58:21;101078.00;;;6.00
68745;BMP180;73143;45.456;11.064;2023-12-04T12:00:57;101070.60;;;6.00
68745;BMP180;73143;45.456;11.064;2023-12-04T12:03:37;101060.00;;;6.00
68745;BMP180;73143;45.456;11.064;2023-12-04T12:06:15;101052.40;;;6.00
68745;BMP180;73143;45.456;11.064;2023-12-04T12:08:53;101047.80;;;6.00
68745;BMP180;73143;45.456;11.064;2023-12-04T12:11:31;101039.80;;;6.00
68745;BMP180;73143;45.456;11.064;2023-12-04T12:14:11;101039.60;;;6.00
68745;BMP180;73143;45.456;11.064;2023-12-04T12:16:48;101034.80;;;6.00
68745;BMP180;73143;45.456;11.064;2023-12-04T12:19:26;101030.80;;;6.06
68745;BMP180;73143;45.456;11.064;2023-12-04T12:22:05;101023.60;;;6.10
68745;BMP180;73143;45.456;11.064;2023-12-04T12:24:43;101022.80;;;6.10
68745;BMP180;73143;45.456;11.064;2023-12-04T12:27:19;101023.60;;;6.10
68745;BMP180;73143;45.456;11.064;2023-12-04T12:29:57;101023.20;;;6.10
68745;BMP180;73143;45.456;11.064;2023-12-04T12:32:34;101021.20;;;6.10
68745;BMP180;73143;45.456;11.064;2023-12-04T12:35:13;101023.60;;;6.10
68745;BMP180;73143;45.456;11.064;2023-12-04T12:37:54;101028.60;;;6.10
68745;BMP180;73143;45.456;11.064;2023-12-04T12:40:33;101021.60;;;6.10
68745;BMP180;73143;45.456;11.064;2023-12-04T12:43:11;101017.20;;;6.10
68745;BMP180;73143;45.456;11.064;2023-12-04T12:45:51;101005.00;;;6.16
68745;BMP180;73143;45.456;11.064;2023-12-04T12:48:31;101003.00;;;6.20
68745;BMP180;73143;45.456;11.064;2023-12-04T12:51:12;100998.20;;;6.20
68745;BMP180;73143;45.456;11.064;2023-12-04T12:53:51;100988.80;;;6.20
68745;BMP180;73143;45.456;11.064;2023-12-04T12:56:32;100984.20;;;6.20
68745;BMP180;73143;45.456;11.064;2023-12-04T12:59:09;100976.20;;;6.20
68745;BMP180;73143;45.456;11.064;2023-12-04T13:01:48;100977.60;;;6.20
68745;BMP180;73143;45.456;11.064;2023-12-04T13:04:25;100978.00;;;6.20
68745;BMP180;73143;45.456;11.064;2023-12-04T13:07:02;100975.40;;;6.20
68745;BMP180;73143;45.456;11.064;2023-12-04T13:09:40;100979.80;;;6.20
68745;BMP180;73143;45.456;11.064;2023-12-04T13:12:17;100983.20;;;6.20
68745;BMP180;73143;45.456;11.064;2023-12-04T13:14:54;100984.20;;;6.20
68745;BMP180;73143;45.456;11.064;2023-12-04T13:17:32;100985.60;;;6.22
68745;BMP180;73143;45.456;11.064;2023-12-04T13:20:13;100986.60;;;6.30
68745;BMP180;73143;45.456;11.064;2023-12-04T13:22:52;100993.00;;;6.30
68745;BMP180;73143;45.456;11.064;2023-12-04T13:25:29;100990.00;;;6.30
68745;BMP180;73143;45.456;11.064;2023-12-04T13:28:07;100984.20;;;6.30
68745;BMP180;73143;45.456;11.064;2023-12-04T13:31:00;100980.60;;;6.30
68745;BMP180;73143;45.456;11.064;2023-12-04T13:33:37;100980.80;;;6.30
68745;BMP180;73143;45.456;11.064;2023-12-04T13:36:17;100976.80;;;6.30
68745;BMP180;73143;45.456;11.064;2023-12-04T13:38:53;100973.60;;;6.30
68745;BMP180;73143;45.456;11.064;2023-12-04T13:41:29;100970.20;;;6.30
68745;BMP180;73143;45.456;11.064;2023-12-04T13:44:24;100971.00;;;6.30
68745;BMP180;73143;45.456;11.064;2023-12-04T13:47:03;100964.80;;;6.30
68745;BMP180;73143;45.456;11.064;2023-12-04T13:49:41;100963.80;;;6.30
68745;BMP180;73143;45.456;11.064;2023-12-04T13:52:21;100963.00;;;6.30
68745;BMP180;73143;45.456;11.064;2023-12-04T13:54:58;100962.40;;;6.30
68745;BMP180;73143;45.456;11.064;2023-12-04T13:57:34;100967.80;;;6.30
68745;BMP180;73143;45.456;11.064;2023-12-04T14:00:22;100961.60;;;6.30
68745;BMP180;73143;45.456;11.064;2023-12-04T14:02:59;100964.60;;;6.30
68745;BMP180;73143;45.456;11.064;2023-12-04T14:05:39;100963.20;;;6.30
68745;BMP180;73143;45.456;11.064;2023-12-04T14:08:17;100961.20;;;6.30
68745;BMP180;73143;45.456;11.064;2023-12-04T14:10:55;100962.40;;;6.30
68745;BMP180;73143;45.456;11.064;2023-12-04T14:13:32;100962.40;;;6.30
68745;BMP180;73143;45.456;11.064;2023-12-04T14:16:11;100962.20;;;6.30
68745;BMP180;73143;45.456;11.064;2023-12-04T14:18:50;100965.20;;;6.30
68745;BMP180;73143;45.456;11.064;2023-12-04T14:21:27;100960.80;;;6.22
68745;BMP180;73143;45.456;11.064;2023-12-04T14:24:05;100956.00;;;6.20
68745;BMP180;73143;45.456;11.064;2023-12-04T14:26:43;100953.00;;;6.20
68745;BMP180;73143;45.456;11.064;2023-12-04T14:29:21;100957.00;;;6.20
68745;BMP180;73143;45.456;11.064;2023-12-04T14:31:58;100959.00;;;6.20
68745;BMP180;73143;45.456;11.064;2023-12-04T14:34:35;100958.00;;;6.20
68745;BMP180;73143;45.456;11.064;2023-12-04T14:37:13;100958.60;;;6.20
68745;BMP180;73143;45.456;11.064;2023-12-04T14:39:50;100954.40;;;6.18
68745;BMP180;73143;45.456;11.064;2023-12-04T14:42:28;100957.40;;;6.14
68745;BMP180;73143;45.456;11.064;2023-12-04T14:45:07;100956.40;;;6.12
68745;BMP180;73143;45.456;11.064;2023-12-04T14:47:45;100958.60;;;6.16
68745;BMP180;73143;45.456;11.064;2023-12-04T14:50:25;100959.00;;;6.14
68745;BMP180;73143;45.456;11.064;2023-12-04T14:53:03;100964.00;;;6.16
68745;BMP180;73143;45.456;11.064;2023-12-04T14:55:50;100960.20;;;6.14
68745;BMP180;73143;45.456;11.064;2023-12-04T14:58:46;100964.40;;;6.10
68745;BMP180;73143;45.456;11.064;2023-12-04T15:02:09;100973.00;;;6.10